createdAt,value
2018-03-27T00:00:35.777Z,6.19
2018-03-27T00:01:36.485Z,6.17
2018-03-27T00:02:37.195Z,6.22
2018-03-27T00:03:37.903Z,6.16
2018-03-27T00:04:38.613Z,6.12
2018-03-27T00:05:39.335Z,6.17
2018-03-27T00:06:40.044Z,6.09
2018-03-27T00:07:40.755Z,6.19
2018-03-27T00:08:41.465Z,6.16
2018-03-27T00:09:42.184Z,6.02
2018-03-27T00:10:42.885Z,6.08
2018-03-27T00:11:43.594Z,6.05
2018-03-27T00:12:44.305Z,6.09
2018-03-27T00:13:45.015Z,6.01
2018-03-27T00:14:45.736Z,6.05
2018-03-27T00:15:46.446Z,6.07
2018-03-27T00:16:47.154Z,6.01
2018-03-27T00:17:47.863Z,5.94
2018-03-27T00:18:48.572Z,6.04
2018-03-27T00:19:49.292Z,6.02
2018-03-27T00:20:50.002Z,6.02
2018-03-27T00:21:50.724Z,5.94
2018-03-27T00:22:51.433Z,6.05
2018-03-27T00:23:52.179Z,5.97
2018-03-27T00:24:52.865Z,6.04
2018-03-27T00:25:53.572Z,5.98
2018-03-27T00:26:54.282Z,6.08
2018-03-27T00:27:55.002Z,6.08
2018-03-27T00:28:55.713Z,6.07
2018-03-27T00:29:56.433Z,6.14
2018-03-27T00:30:57.144Z,6.17
2018-03-27T00:31:57.855Z,6.17
2018-03-27T00:32:58.564Z,6.22
2018-03-27T00:33:59.286Z,6.22
2018-03-27T00:35:00.006Z,6.16
2018-03-27T00:36:00.715Z,6.26
2018-03-27T00:37:01.424Z,6.22
2018-03-27T00:38:02.133Z,6.17
2018-03-27T00:39:02.843Z,6.26
2018-03-27T00:40:03.567Z,6.16
2018-03-27T00:41:04.287Z,6.17
2018-03-27T00:42:04.996Z,6.22
2018-03-27T00:43:05.701Z,6.20
2018-03-27T00:44:06.411Z,6.20
2018-03-27T00:45:07.119Z,6.20
2018-03-27T00:46:07.828Z,6.14
2018-03-27T00:47:08.536Z,6.22
2018-03-27T00:48:09.259Z,6.12
2018-03-27T00:49:09.956Z,6.16
2018-03-27T00:50:10.676Z,6.14
2018-03-27T00:51:11.385Z,6.11
2018-03-27T00:52:12.097Z,6.14
2018-03-27T00:53:12.802Z,6.04
2018-03-27T00:54:13.510Z,6.11
2018-03-27T00:55:14.220Z,6.14
2018-03-27T00:56:14.927Z,6.11
2018-03-27T00:57:15.634Z,6.22
2018-03-27T00:58:16.341Z,6.16
2018-03-27T00:59:17.049Z,6.30
2018-03-27T01:00:17.771Z,6.22
2018-03-27T01:01:18.491Z,6.20
2018-03-27T01:02:19.199Z,6.22
2018-03-27T01:03:19.924Z,6.20
2018-03-27T01:04:20.633Z,6.19
2018-03-27T01:05:21.341Z,6.16
2018-03-27T01:06:22.062Z,6.19
2018-03-27T01:07:22.783Z,6.24
2018-03-27T01:08:23.505Z,6.17
2018-03-27T01:09:24.216Z,6.19
2018-03-27T01:10:24.927Z,6.19
2018-03-27T01:11:25.637Z,6.22
2018-03-27T01:12:26.346Z,6.12
2018-03-27T01:13:27.053Z,6.07
2018-03-27T01:14:27.776Z,6.08
2018-03-27T01:15:28.483Z,6.05
2018-03-27T01:16:29.204Z,6.17
2018-03-27T01:17:29.912Z,6.11
2018-03-27T01:18:30.621Z,6.20
2018-03-27T01:19:31.331Z,6.22
2018-03-27T01:20:32.039Z,6.22
2018-03-27T01:21:32.748Z,6.22
2018-03-27T01:22:33.470Z,6.16
2018-03-27T01:23:34.190Z,6.20
2018-03-27T01:24:34.911Z,6.22
2018-03-27T01:25:35.620Z,6.19
2018-03-27T01:26:36.329Z,6.20
2018-03-27T01:27:37.050Z,6.20
2018-03-27T01:28:37.757Z,6.09
2018-03-27T01:29:38.479Z,6.16
2018-03-27T01:30:39.191Z,6.01
2018-03-27T01:31:39.899Z,6.04
2018-03-27T01:32:40.620Z,6.04
2018-03-27T01:33:41.340Z,6.07
2018-03-27T01:34:42.064Z,6.07
2018-03-27T01:35:42.773Z,5.99
2018-03-27T01:36:43.483Z,6.07
2018-03-27T01:37:44.221Z,6.01
2018-03-27T01:38:44.915Z,5.89
2018-03-27T01:39:45.623Z,5.90
2018-03-27T01:40:46.330Z,5.86
2018-03-27T01:41:47.038Z,5.89
2018-03-27T01:42:47.747Z,5.84
2018-03-27T01:43:48.454Z,5.89
2018-03-27T01:44:49.164Z,5.91
2018-03-27T01:45:49.884Z,5.84
2018-03-27T01:46:50.593Z,5.73
2018-03-27T01:47:51.301Z,5.84
2018-03-27T01:48:52.008Z,5.86
2018-03-27T01:49:52.716Z,5.82
2018-03-27T01:50:53.426Z,5.87
2018-03-27T01:51:54.145Z,5.87
2018-03-27T01:52:54.852Z,5.91
2018-03-27T01:53:55.573Z,5.86
2018-03-27T01:54:56.296Z,5.98
2018-03-27T01:55:57.005Z,5.94
2018-03-27T01:56:57.725Z,5.94
2018-03-27T01:57:58.448Z,5.94
2018-03-27T01:58:59.156Z,5.89
2018-03-27T01:59:59.865Z,5.87
2018-03-27T02:01:00.574Z,5.87
2018-03-27T02:02:01.282Z,5.90
2018-03-27T02:03:01.991Z,5.87
2018-03-27T02:04:02.712Z,5.87
2018-03-27T02:05:03.424Z,5.91
2018-03-27T02:06:04.142Z,5.90
2018-03-27T02:07:04.863Z,5.89
2018-03-27T02:08:05.572Z,5.91
2018-03-27T02:09:06.282Z,6.02
2018-03-27T02:10:07.004Z,5.93
2018-03-27T02:11:07.720Z,6.04
2018-03-27T02:12:08.424Z,6.07
2018-03-27T02:13:09.134Z,6.08
2018-03-27T02:14:09.844Z,6.12
2018-03-27T02:15:10.554Z,6.05
2018-03-27T02:16:11.277Z,6.08
2018-03-27T02:17:11.985Z,6.11
2018-03-27T02:18:12.694Z,6.07
2018-03-27T02:19:13.402Z,6.19
2018-03-27T02:20:14.121Z,6.11
2018-03-27T02:21:14.831Z,6.12
2018-03-27T02:22:15.540Z,6.09
2018-03-27T02:23:16.263Z,5.99
2018-03-27T02:24:16.984Z,6.01
2018-03-27T02:25:17.694Z,6.08
2018-03-27T02:26:18.401Z,6.08
2018-03-27T02:27:19.110Z,6.05
2018-03-27T02:28:19.817Z,6.12
2018-03-27T02:29:20.528Z,6.05
2018-03-27T02:30:21.247Z,6.08
2018-03-27T02:31:21.957Z,6.04
2018-03-27T02:32:22.679Z,6.04
2018-03-27T02:33:23.400Z,6.05
2018-03-27T02:34:24.114Z,6.04
2018-03-27T02:35:24.820Z,6.01
2018-03-27T02:36:25.529Z,5.99
2018-03-27T02:37:26.240Z,5.94
2018-03-27T02:38:26.961Z,6.01
2018-03-27T02:39:27.670Z,5.90
2018-03-27T02:40:28.393Z,5.89
2018-03-27T02:41:29.115Z,6.02
2018-03-27T02:42:29.826Z,5.93
2018-03-27T02:43:30.533Z,5.86
2018-03-27T02:44:31.242Z,5.99
2018-03-27T02:45:31.951Z,5.87
2018-03-27T02:46:32.660Z,5.87
2018-03-27T02:47:33.378Z,5.93
2018-03-27T02:48:34.092Z,5.91
2018-03-27T02:49:34.800Z,5.91
2018-03-27T02:50:35.506Z,5.97
2018-03-27T02:51:36.216Z,5.99
2018-03-27T02:52:36.922Z,5.91
2018-03-27T02:53:37.629Z,5.89
2018-03-27T02:54:38.377Z,5.99
2018-03-27T02:55:39.044Z,5.84
2018-03-27T02:56:39.769Z,5.89
2018-03-27T02:57:40.472Z,5.99
2018-03-27T02:58:41.180Z,5.93
2018-03-27T02:59:41.890Z,5.93
2018-03-27T03:00:42.612Z,5.94
2018-03-27T03:01:43.321Z,5.93
2018-03-27T03:02:44.026Z,5.91
2018-03-27T03:03:44.736Z,5.97
2018-03-27T03:04:45.443Z,5.97
2018-03-27T03:05:46.152Z,5.98
2018-03-27T03:06:46.860Z,6.02
2018-03-27T03:07:47.582Z,5.91
2018-03-27T03:08:48.303Z,5.97
2018-03-27T03:09:49.011Z,5.93
2018-03-27T03:10:49.721Z,5.93
2018-03-27T03:11:50.427Z,5.89
2018-03-27T03:12:51.135Z,5.99
2018-03-27T03:13:51.845Z,5.87
2018-03-27T03:14:52.567Z,5.98
2018-03-27T03:15:53.276Z,5.98
2018-03-27T03:16:53.990Z,6.01
2018-03-27T03:17:54.694Z,5.99
2018-03-27T03:18:55.415Z,6.04
2018-03-27T03:19:56.122Z,6.02
2018-03-27T03:20:56.835Z,6.02
2018-03-27T03:21:57.538Z,6.04
2018-03-27T03:22:58.260Z,6.07
2018-03-27T03:23:58.979Z,6.08
2018-03-27T03:24:59.681Z,6.14
2018-03-27T03:26:00.391Z,6.12
2018-03-27T03:27:01.101Z,6.17
2018-03-27T03:28:01.823Z,6.17
2018-03-27T03:29:02.543Z,6.20
2018-03-27T03:30:03.253Z,6.22
2018-03-27T03:31:03.971Z,6.19
2018-03-27T03:32:04.669Z,6.24
2018-03-27T03:33:05.380Z,6.19
2018-03-27T03:34:06.102Z,6.17
2018-03-27T03:35:06.823Z,6.14
2018-03-27T03:36:07.531Z,6.12
2018-03-27T03:37:08.241Z,6.11
2018-03-27T03:38:08.963Z,6.09
2018-03-27T03:39:09.680Z,6.07
2018-03-27T03:40:10.388Z,6.11
2018-03-27T03:41:11.095Z,6.05
2018-03-27T03:42:11.802Z,6.09
2018-03-27T03:43:12.524Z,6.07
2018-03-27T03:44:13.232Z,6.05
2018-03-27T03:45:13.940Z,5.99
2018-03-27T03:46:14.648Z,6.02
2018-03-27T03:47:15.355Z,5.97
2018-03-27T03:48:16.070Z,5.94
2018-03-27T03:49:16.775Z,5.82
2018-03-27T03:50:17.498Z,5.87
2018-03-27T03:51:18.206Z,5.93
2018-03-27T03:52:18.918Z,5.82
2018-03-27T03:53:19.635Z,5.76
2018-03-27T03:54:20.355Z,5.76
2018-03-27T03:55:21.063Z,5.73
2018-03-27T03:56:21.772Z,5.68
2018-03-27T03:57:22.479Z,5.69
2018-03-27T03:58:23.189Z,5.66
2018-03-27T03:59:23.898Z,5.62
2018-03-27T04:00:24.642Z,5.56
2018-03-27T04:01:25.316Z,5.48
2018-03-27T04:02:26.040Z,5.48
2018-03-27T04:03:26.750Z,5.48
2018-03-27T04:04:27.462Z,5.44
2018-03-27T04:05:28.182Z,5.41
2018-03-27T04:06:28.890Z,5.48
2018-03-27T04:07:29.597Z,5.35
2018-03-27T04:08:30.307Z,5.28
2018-03-27T04:09:31.316Z,5.28
2018-03-27T04:10:32.028Z,5.23
2018-03-27T04:11:32.733Z,5.21
2018-03-27T04:12:33.441Z,5.14
2018-03-27T04:13:34.149Z,5.14
2018-03-27T04:14:35.106Z,5.10
2018-03-27T04:15:35.815Z,5.08
2018-03-27T04:16:36.536Z,5.14
2018-03-27T04:17:37.244Z,5.08
2018-03-27T04:18:37.951Z,5.08
2018-03-27T04:19:38.658Z,5.00
2018-03-27T04:20:39.367Z,5.05
2018-03-27T04:21:40.081Z,5.10
2018-03-27T04:22:40.783Z,4.97
2018-03-27T04:23:41.490Z,5.07
2018-03-27T04:24:42.210Z,5.04
2018-03-27T04:25:42.929Z,4.99
2018-03-27T04:26:43.636Z,5.04
2018-03-27T04:27:44.343Z,5.00
2018-03-27T04:28:45.049Z,5.04
2018-03-27T04:29:45.757Z,4.96
2018-03-27T04:30:46.464Z,4.99
2018-03-27T04:31:47.173Z,4.90
2018-03-27T04:32:47.885Z,4.84
2018-03-27T04:33:48.605Z,4.86
2018-03-27T04:34:49.325Z,4.84
2018-03-27T04:35:50.032Z,4.82
2018-03-27T04:36:50.740Z,4.90
2018-03-27T04:37:51.448Z,4.75
2018-03-27T04:38:52.157Z,4.89
2018-03-27T04:39:52.864Z,4.82
2018-03-27T04:40:53.573Z,4.78
2018-03-27T04:41:54.281Z,4.82
2018-03-27T04:42:54.989Z,4.77
2018-03-27T04:43:55.697Z,4.74
2018-03-27T04:44:56.405Z,4.75
2018-03-27T04:45:57.114Z,4.71
2018-03-27T04:46:57.833Z,4.80
2018-03-27T04:47:58.542Z,4.74
2018-03-27T04:48:59.249Z,4.70
2018-03-27T04:49:59.957Z,4.75
2018-03-27T04:51:00.687Z,4.78
2018-03-27T04:52:01.381Z,4.75
2018-03-27T04:53:02.090Z,4.74
2018-03-27T04:54:02.798Z,4.71
2018-03-27T04:55:03.509Z,4.62
2018-03-27T04:56:04.215Z,4.71
2018-03-27T04:57:04.922Z,4.63
2018-03-27T04:58:05.646Z,4.66
2018-03-27T04:59:06.356Z,4.63
2018-03-27T05:00:07.068Z,4.55
2018-03-27T05:01:07.776Z,4.68
2018-03-27T05:02:08.486Z,4.58
2018-03-27T05:03:09.193Z,4.58
2018-03-27T05:04:09.904Z,4.55
2018-03-27T05:05:10.624Z,4.56
2018-03-27T05:06:11.334Z,4.63
2018-03-27T05:07:12.043Z,4.55
2018-03-27T05:08:12.753Z,4.59
2018-03-27T05:09:13.464Z,4.56
2018-03-27T05:10:14.173Z,4.55
2018-03-27T05:11:14.882Z,4.55
2018-03-27T05:12:15.589Z,4.55
2018-03-27T05:13:16.297Z,4.58
2018-03-27T05:14:17.022Z,4.50
2018-03-27T05:15:17.734Z,4.53
2018-03-27T05:16:18.443Z,4.48
2018-03-27T05:17:19.152Z,4.58
2018-03-27T05:18:19.874Z,4.58
2018-03-27T05:19:20.586Z,4.55
2018-03-27T05:20:21.312Z,4.50
2018-03-27T05:21:22.024Z,4.42
2018-03-27T05:22:22.734Z,4.44
2018-03-27T05:23:23.445Z,4.55
2018-03-27T05:24:24.156Z,4.52
2018-03-27T05:25:24.884Z,4.48
2018-03-27T05:26:25.624Z,4.52
2018-03-27T05:27:26.334Z,4.48
2018-03-27T05:28:27.027Z,4.52
2018-03-27T05:29:27.750Z,4.48
2018-03-27T05:30:28.474Z,4.50
2018-03-27T05:31:29.199Z,4.50
2018-03-27T05:32:29.909Z,4.45
2018-03-27T05:33:30.620Z,4.52
2018-03-27T05:34:31.333Z,4.56
2018-03-27T05:35:32.045Z,4.49
2018-03-27T05:36:32.771Z,4.50
2018-03-27T05:37:33.483Z,4.40
2018-03-27T05:38:34.194Z,4.34
2018-03-27T05:39:34.905Z,4.49
2018-03-27T05:40:35.627Z,4.44
2018-03-27T05:41:36.338Z,4.48
2018-03-27T05:42:37.049Z,4.42
2018-03-27T05:43:37.759Z,4.49
2018-03-27T05:44:38.472Z,4.48
2018-03-27T05:45:39.185Z,4.44
2018-03-27T05:46:39.903Z,4.49
2018-03-27T05:47:40.609Z,4.45
2018-03-27T05:48:41.319Z,4.42
2018-03-27T05:49:42.043Z,4.49
2018-03-27T05:50:42.755Z,4.48
2018-03-27T05:51:43.493Z,4.44
2018-03-27T05:52:44.193Z,4.42
2018-03-27T05:53:44.905Z,4.50
2018-03-27T05:54:45.620Z,4.52
2018-03-27T05:55:46.337Z,4.62
2018-03-27T05:56:47.053Z,4.58
2018-03-27T05:57:47.766Z,4.60
2018-03-27T05:58:48.492Z,4.56
2018-03-27T05:59:49.208Z,4.56
2018-03-27T06:00:49.929Z,4.58
2018-03-27T06:01:50.646Z,4.67
2018-03-27T06:02:51.360Z,4.73
2018-03-27T06:03:52.073Z,4.73
2018-03-27T06:04:52.785Z,4.78
2018-03-27T06:05:53.499Z,4.80
2018-03-27T06:06:54.213Z,4.86
2018-03-27T06:07:54.945Z,4.87
2018-03-27T06:08:55.665Z,4.84
2018-03-27T06:09:56.378Z,4.92
2018-03-27T06:10:57.093Z,4.93
2018-03-27T06:11:57.806Z,5.05
2018-03-27T06:12:58.516Z,5.02
2018-03-27T06:13:59.233Z,5.15
2018-03-27T06:14:59.946Z,4.97
2018-03-27T06:16:00.659Z,5.12
2018-03-27T06:17:01.372Z,5.10
2018-03-27T06:18:02.131Z,5.04
2018-03-27T06:19:02.815Z,5.08
2018-03-27T06:20:03.523Z,5.12
2018-03-27T06:21:04.239Z,5.20
2018-03-27T06:22:04.967Z,5.25
2018-03-27T06:23:05.695Z,5.38
2018-03-27T06:24:06.427Z,5.50
2018-03-27T06:25:07.152Z,5.48
2018-03-27T06:26:07.861Z,5.61
2018-03-27T06:27:08.577Z,5.59
2018-03-27T06:28:09.291Z,5.51
2018-03-27T06:29:10.017Z,5.59
2018-03-27T06:30:10.730Z,5.39
2018-03-27T06:31:11.445Z,5.39
2018-03-27T06:32:12.162Z,5.61
2018-03-27T06:33:12.877Z,5.57
2018-03-27T06:34:13.591Z,5.62
2018-03-27T06:35:14.306Z,5.68
2018-03-27T06:36:15.020Z,5.57
2018-03-27T06:37:15.746Z,5.73
2018-03-27T06:38:16.463Z,5.86
2018-03-27T06:39:17.186Z,5.93
2018-03-27T06:40:17.893Z,6.01
2018-03-27T06:41:18.609Z,6.07
2018-03-27T06:42:19.334Z,5.82
2018-03-27T06:43:20.040Z,5.87
2018-03-27T06:44:20.755Z,5.98
2018-03-27T06:45:21.471Z,6.02
2018-03-27T06:46:22.189Z,5.98
2018-03-27T06:47:22.905Z,5.83
2018-03-27T06:48:23.621Z,5.84
2018-03-27T06:49:24.337Z,5.86
2018-03-27T06:50:25.054Z,5.86
2018-03-27T06:51:25.768Z,6.07
2018-03-27T06:52:26.495Z,6.24
2018-03-27T06:53:27.224Z,6.19
2018-03-27T06:54:27.940Z,6.04
2018-03-27T06:55:28.658Z,6.09
2018-03-27T06:56:29.386Z,6.28
2018-03-27T06:57:30.103Z,6.17
2018-03-27T06:58:30.820Z,6.45
2018-03-27T06:59:31.537Z,6.24
2018-03-27T07:00:32.253Z,6.36
2018-03-27T07:01:33.007Z,6.35
2018-03-27T07:02:33.689Z,6.52
2018-03-27T07:03:34.426Z,6.63
2018-03-27T07:04:35.132Z,6.57
2018-03-27T07:05:35.891Z,6.64
2018-03-27T07:06:36.580Z,6.85
2018-03-27T07:07:37.329Z,7.11
2018-03-27T07:08:38.036Z,7.18
2018-03-27T07:09:38.763Z,7.11
2018-03-27T07:10:39.510Z,7.02
2018-03-27T07:11:40.199Z,6.59
2018-03-27T07:12:40.919Z,6.96
2018-03-27T07:13:41.669Z,6.99
2018-03-27T07:14:42.354Z,6.96
2018-03-27T07:15:43.110Z,7.05
2018-03-27T07:16:43.795Z,6.99
2018-03-27T07:17:44.514Z,7.18
2018-03-27T07:18:45.249Z,7.24
2018-03-27T07:19:46.006Z,7.23
2018-03-27T07:20:46.691Z,7.33
2018-03-27T07:21:47.410Z,7.25
2018-03-27T07:22:48.132Z,7.17
2018-03-27T07:23:48.858Z,7.48
2018-03-27T07:24:49.571Z,7.56
2018-03-27T07:25:50.292Z,7.75
2018-03-27T07:26:51.026Z,7.76
2018-03-27T07:27:51.749Z,8.12
2018-03-27T07:28:52.468Z,8.13
2018-03-27T07:29:53.188Z,8.05
2018-03-27T07:30:53.912Z,8.10
2018-03-27T07:31:54.634Z,8.23
2018-03-27T07:32:55.368Z,8.63
2018-03-27T07:33:56.092Z,8.69
2018-03-27T07:34:56.823Z,8.88
2018-03-27T07:35:57.547Z,9.08
2018-03-27T07:36:58.267Z,9.40
2018-03-27T07:37:58.989Z,9.00
2018-03-27T07:38:59.714Z,9.34
2018-03-27T07:40:00.438Z,9.21
2018-03-27T07:41:01.160Z,8.74
2018-03-27T07:42:01.895Z,8.74
2018-03-27T07:43:02.617Z,8.82
2018-03-27T07:44:03.341Z,8.69
2018-03-27T07:45:04.067Z,8.74
2018-03-27T07:46:04.790Z,8.78
2018-03-27T07:47:05.520Z,9.25
2018-03-27T07:48:06.238Z,9.26
2018-03-27T07:49:06.963Z,9.32
2018-03-27T07:50:07.687Z,9.43
2018-03-27T07:51:08.412Z,9.46
2018-03-27T07:52:09.136Z,9.23
2018-03-27T07:53:09.872Z,9.14
2018-03-27T07:54:10.596Z,9.08
2018-03-27T07:55:11.321Z,8.95
2018-03-27T07:56:12.049Z,8.73
2018-03-27T07:57:12.789Z,8.95
2018-03-27T07:58:13.541Z,9.03
2018-03-27T07:59:14.239Z,8.94
2018-03-27T08:00:14.965Z,8.56
2018-03-27T08:01:15.692Z,8.53
2018-03-27T08:02:16.419Z,8.64
2018-03-27T08:03:17.142Z,8.63
2018-03-27T08:04:17.869Z,9.08
2018-03-27T08:05:18.601Z,9.02
2018-03-27T08:06:19.322Z,9.41
2018-03-27T08:07:20.048Z,8.88
2018-03-27T08:08:20.775Z,9.25
2018-03-27T08:09:21.500Z,8.95
2018-03-27T08:10:22.228Z,9.11
2018-03-27T08:11:22.953Z,8.88
2018-03-27T08:12:23.681Z,8.70
2018-03-27T08:13:24.406Z,8.00
2018-03-27T08:14:25.130Z,8.03
2018-03-27T08:15:25.857Z,7.73
2018-03-27T08:16:26.581Z,7.76
2018-03-27T08:17:27.305Z,7.53
2018-03-27T08:18:28.059Z,7.40
2018-03-27T08:19:28.759Z,7.66
2018-03-27T08:20:29.492Z,7.42
2018-03-27T08:21:30.219Z,7.42
2018-03-27T08:22:30.951Z,7.42
2018-03-27T08:23:31.675Z,7.24
2018-03-27T08:24:32.447Z,7.02
2018-03-27T08:25:33.120Z,6.81
2018-03-27T08:26:33.844Z,6.85
2018-03-27T08:27:34.565Z,6.87
2018-03-27T08:28:35.293Z,6.85
2018-03-27T08:29:36.057Z,6.74
2018-03-27T08:30:36.731Z,6.70
2018-03-27T08:31:37.452Z,6.70
2018-03-27T08:32:38.186Z,6.72
2018-03-27T08:33:38.909Z,6.48
2018-03-27T08:34:39.628Z,6.48
2018-03-27T08:35:40.349Z,6.42
2018-03-27T08:36:41.072Z,6.30
2018-03-27T08:37:41.793Z,6.44
2018-03-27T08:38:42.521Z,6.59
2018-03-27T08:39:43.255Z,6.60
2018-03-27T08:40:43.973Z,6.70
2018-03-27T08:41:44.692Z,6.79
2018-03-27T08:42:45.417Z,6.81
2018-03-27T08:43:46.136Z,6.99
2018-03-27T08:44:46.851Z,7.05
2018-03-27T08:45:47.585Z,7.11
2018-03-27T08:46:48.306Z,7.20
2018-03-27T08:47:49.029Z,7.47
2018-03-27T08:48:49.747Z,7.70
2018-03-27T08:49:50.482Z,8.08
2018-03-27T08:50:51.216Z,8.82
2018-03-27T08:51:51.937Z,9.14
2018-03-27T08:52:52.661Z,9.22
2018-03-27T08:53:53.393Z,9.36
2018-03-27T08:54:54.173Z,9.65
2018-03-27T08:55:54.843Z,9.26
2018-03-27T08:56:55.564Z,9.54
2018-03-27T08:57:56.283Z,9.51
2018-03-27T08:58:57.005Z,9.56
2018-03-27T08:59:57.727Z,9.51
2018-03-27T09:00:58.462Z,9.43
2018-03-27T09:01:59.184Z,9.26
2018-03-27T09:02:59.919Z,8.78
2018-03-27T09:04:00.642Z,8.30
2018-03-27T09:05:01.363Z,8.46
2018-03-27T09:06:02.100Z,8.23
2018-03-27T09:07:02.837Z,8.19
2018-03-27T09:08:03.557Z,8.10
2018-03-27T09:09:04.274Z,8.12
2018-03-27T09:10:05.008Z,8.03
2018-03-27T09:11:05.722Z,8.03
2018-03-27T09:12:06.441Z,7.93
2018-03-27T09:13:07.162Z,8.10
2018-03-27T09:14:07.886Z,8.16
2018-03-27T09:15:08.609Z,8.34
2018-03-27T09:16:09.330Z,8.56
2018-03-27T09:17:10.052Z,8.88
2018-03-27T09:18:10.796Z,9.10
2018-03-27T09:19:11.511Z,9.31
2018-03-27T09:20:12.236Z,9.74
2018-03-27T09:21:12.965Z,10.33
2018-03-27T09:22:13.690Z,10.13
2018-03-27T09:23:14.432Z,10.42
2018-03-27T09:24:15.159Z,10.76
2018-03-27T09:25:15.886Z,10.57
2018-03-27T09:26:16.616Z,10.79
2018-03-27T09:27:17.342Z,10.92
2018-03-27T09:28:18.070Z,11.41
2018-03-27T09:29:18.799Z,11.36
2018-03-27T09:30:19.525Z,11.77
2018-03-27T09:31:20.252Z,11.81
2018-03-27T09:32:20.980Z,11.90
2018-03-27T09:33:21.709Z,11.78
2018-03-27T09:34:22.439Z,11.80
2018-03-27T09:35:23.180Z,12.15
2018-03-27T09:36:23.924Z,12.46
2018-03-27T09:37:24.656Z,12.79
2018-03-27T09:38:25.387Z,12.22
2018-03-27T09:39:26.119Z,12.87
2018-03-27T09:40:26.852Z,13.15
2018-03-27T09:41:27.587Z,13.30
2018-03-27T09:42:28.323Z,13.35
2018-03-27T09:43:29.071Z,13.25
2018-03-27T09:44:29.811Z,12.78
2018-03-27T09:45:30.565Z,13.05
2018-03-27T09:46:31.300Z,12.20
2018-03-27T09:47:32.032Z,12.22
2018-03-27T09:48:32.769Z,11.60
2018-03-27T09:49:33.506Z,11.36
2018-03-27T09:50:34.242Z,11.84
2018-03-27T09:51:34.980Z,11.66
2018-03-27T09:52:35.733Z,11.66
2018-03-27T09:53:36.470Z,11.91
2018-03-27T09:54:37.221Z,11.87
2018-03-27T09:55:37.959Z,12.18
2018-03-27T09:56:38.711Z,12.24
2018-03-27T09:57:39.449Z,12.21
2018-03-27T09:58:40.185Z,12.68
2018-03-27T09:59:40.923Z,12.97
2018-03-27T10:00:41.660Z,12.93
2018-03-27T10:01:42.399Z,12.76
2018-03-27T10:02:43.138Z,12.85
2018-03-27T10:03:43.878Z,13.27
2018-03-27T10:04:44.624Z,13.52
2018-03-27T10:05:45.362Z,14.04
2018-03-27T10:06:46.097Z,14.50
2018-03-27T10:07:46.831Z,14.65
2018-03-27T10:08:47.570Z,13.68
2018-03-27T10:09:48.303Z,13.39
2018-03-27T10:10:49.037Z,14.10
2018-03-27T10:11:49.773Z,14.28
2018-03-27T10:12:50.507Z,13.71
2018-03-27T10:13:51.245Z,13.25
2018-03-27T10:14:51.983Z,13.31
2018-03-27T10:15:52.767Z,13.03
2018-03-27T10:16:53.466Z,12.97
2018-03-27T10:17:54.205Z,13.37
2018-03-27T10:18:54.939Z,13.01
2018-03-27T10:19:55.674Z,12.72
2018-03-27T10:20:56.413Z,12.73
2018-03-27T10:21:57.147Z,13.22
2018-03-27T10:22:57.883Z,14.04
2018-03-27T10:23:58.618Z,14.68
2018-03-27T10:24:59.354Z,14.44
2018-03-27T10:26:00.093Z,14.54
2018-03-27T10:27:00.839Z,14.54
2018-03-27T10:28:01.575Z,15.11
2018-03-27T10:29:02.321Z,15.11
2018-03-27T10:30:03.070Z,14.79
2018-03-27T10:31:03.805Z,13.93
2018-03-27T10:32:04.538Z,13.77
2018-03-27T10:33:05.329Z,14.12
2018-03-27T10:34:06.009Z,13.38
2018-03-27T10:35:06.757Z,13.63
2018-03-27T10:36:07.507Z,14.44
2018-03-27T10:37:08.243Z,14.33
2018-03-27T10:38:08.978Z,14.14
2018-03-27T10:39:09.712Z,13.53
2018-03-27T10:40:10.458Z,13.90
2018-03-27T10:41:11.206Z,14.00
2018-03-27T10:42:11.941Z,14.30
2018-03-27T10:43:12.676Z,14.51
2018-03-27T10:44:13.410Z,14.89
2018-03-27T10:45:14.148Z,14.84
2018-03-27T10:46:14.892Z,15.06
2018-03-27T10:47:15.627Z,14.69
2018-03-27T10:48:16.365Z,14.77
2018-03-27T10:49:17.111Z,15.24
2018-03-27T10:50:17.846Z,15.46
2018-03-27T10:51:18.580Z,15.55
2018-03-27T10:52:19.316Z,14.26
2018-03-27T10:53:20.048Z,13.35
2018-03-27T10:54:20.781Z,13.08
2018-03-27T10:55:21.516Z,13.00
2018-03-27T10:56:22.274Z,12.83
2018-03-27T10:57:22.994Z,12.58
2018-03-27T10:58:23.728Z,12.54
2018-03-27T10:59:24.463Z,11.94
2018-03-27T11:00:25.197Z,11.90
2018-03-27T11:01:25.928Z,11.65
2018-03-27T11:02:26.675Z,11.97
2018-03-27T11:03:27.406Z,11.95
2018-03-27T11:04:28.132Z,11.78
2018-03-27T11:05:28.870Z,11.95
2018-03-27T11:06:29.602Z,11.95
2018-03-27T11:07:30.332Z,11.88
2018-03-27T11:08:31.061Z,11.90
2018-03-27T11:09:31.787Z,11.65
2018-03-27T11:10:32.510Z,11.59
2018-03-27T11:11:33.250Z,11.48
2018-03-27T11:12:33.975Z,11.47
2018-03-27T11:13:34.702Z,11.47
2018-03-27T11:14:35.429Z,12.07
2018-03-27T11:15:36.171Z,12.40
2018-03-27T11:16:36.907Z,12.04
2018-03-27T11:17:37.634Z,12.12
2018-03-27T11:18:38.373Z,12.13
2018-03-27T11:19:39.102Z,12.39
2018-03-27T11:20:39.843Z,12.46
2018-03-27T11:21:40.575Z,12.72
2018-03-27T11:22:41.296Z,12.47
2018-03-27T11:23:42.020Z,12.50
2018-03-27T11:24:42.747Z,12.43
2018-03-27T11:25:43.471Z,12.39
2018-03-27T11:26:44.211Z,12.55
2018-03-27T11:27:44.939Z,12.68
2018-03-27T11:28:45.682Z,12.46
2018-03-27T11:29:46.408Z,12.60
2018-03-27T11:30:47.139Z,12.64
2018-03-27T11:31:47.865Z,12.72
2018-03-27T11:32:48.608Z,12.79
2018-03-27T11:33:49.350Z,12.82
2018-03-27T11:34:50.089Z,13.01
2018-03-27T11:35:50.816Z,12.95
2018-03-27T11:36:51.544Z,12.76
2018-03-27T11:37:52.284Z,12.95
2018-03-27T11:38:53.014Z,13.09
2018-03-27T11:39:53.744Z,13.05
2018-03-27T11:40:54.480Z,12.97
2018-03-27T11:41:55.221Z,12.83
2018-03-27T11:42:55.951Z,12.83
2018-03-27T11:43:56.679Z,12.86
2018-03-27T11:44:57.410Z,13.03
2018-03-27T11:45:58.152Z,13.25
2018-03-27T11:46:58.881Z,13.42
2018-03-27T11:47:59.626Z,13.53
2018-03-27T11:49:00.358Z,13.50
2018-03-27T11:50:01.087Z,13.62
2018-03-27T11:51:01.819Z,14.05
2018-03-27T11:52:02.562Z,14.53
2018-03-27T11:53:03.293Z,14.41
2018-03-27T11:54:04.026Z,14.66
2018-03-27T11:55:04.760Z,14.10
2018-03-27T11:56:05.493Z,14.11
2018-03-27T11:57:06.228Z,14.10
2018-03-27T11:58:06.962Z,14.03
2018-03-27T11:59:07.696Z,13.63
2018-03-27T12:00:08.429Z,13.59
2018-03-27T12:01:09.164Z,13.72
2018-03-27T12:02:09.911Z,13.47
2018-03-27T12:03:10.649Z,14.10
2018-03-27T12:04:11.395Z,14.05
2018-03-27T12:05:12.128Z,14.14
2018-03-27T12:06:12.863Z,14.32
2018-03-27T12:07:13.599Z,13.95
2018-03-27T12:08:14.334Z,14.05
2018-03-27T12:09:15.070Z,14.26
2018-03-27T12:10:15.817Z,14.53
2018-03-27T12:11:16.553Z,14.53
2018-03-27T12:12:17.302Z,14.37
2018-03-27T12:13:18.038Z,14.20
2018-03-27T12:14:18.773Z,13.95
2018-03-27T12:15:19.537Z,13.95
2018-03-27T12:16:20.241Z,14.08
2018-03-27T12:17:20.974Z,13.79
2018-03-27T12:18:21.727Z,13.77
2018-03-27T12:19:22.442Z,13.13
2018-03-27T12:20:23.177Z,12.62
2018-03-27T12:21:23.913Z,12.75
2018-03-27T12:22:24.646Z,12.75
2018-03-27T12:23:25.385Z,12.86
2018-03-27T12:24:26.127Z,12.80
2018-03-27T12:25:26.865Z,12.45
2018-03-27T12:26:27.590Z,12.45
2018-03-27T12:27:28.333Z,12.35
2018-03-27T12:28:29.059Z,12.22
2018-03-27T12:29:29.785Z,12.42
2018-03-27T12:30:30.511Z,12.55
2018-03-27T12:31:31.237Z,12.67
2018-03-27T12:32:31.970Z,12.54
2018-03-27T12:33:32.689Z,12.22
2018-03-27T12:34:33.412Z,12.17
2018-03-27T12:35:34.137Z,12.13
2018-03-27T12:36:34.860Z,11.97
2018-03-27T12:37:35.586Z,11.97
2018-03-27T12:38:36.309Z,11.97
2018-03-27T12:39:37.045Z,12.00
2018-03-27T12:40:37.768Z,12.03
2018-03-27T12:41:38.492Z,12.10
2018-03-27T12:42:39.225Z,12.09
2018-03-27T12:43:39.947Z,12.09
2018-03-27T12:44:40.671Z,11.81
2018-03-27T12:45:41.392Z,11.75
2018-03-27T12:46:42.114Z,11.88
2018-03-27T12:47:42.848Z,12.02
2018-03-27T12:48:43.577Z,12.02
2018-03-27T12:49:44.292Z,11.84
2018-03-27T12:50:45.015Z,11.81
2018-03-27T12:51:45.736Z,11.75
2018-03-27T12:52:46.457Z,11.83
2018-03-27T12:53:47.179Z,11.78
2018-03-27T12:54:47.900Z,11.86
2018-03-27T12:55:48.618Z,11.83
2018-03-27T12:56:49.340Z,11.80
2018-03-27T12:57:50.061Z,11.87
2018-03-27T12:58:50.780Z,11.88
2018-03-27T12:59:51.501Z,11.88
2018-03-27T13:00:52.220Z,11.95
2018-03-27T13:01:52.940Z,11.97
2018-03-27T13:02:53.660Z,11.88
2018-03-27T13:03:54.385Z,11.80
2018-03-27T13:04:55.102Z,11.69
2018-03-27T13:05:55.820Z,11.80
2018-03-27T13:06:56.542Z,11.78
2018-03-27T13:07:57.262Z,11.80
2018-03-27T13:08:57.982Z,11.70
2018-03-27T13:09:58.703Z,11.80
2018-03-27T13:10:59.422Z,11.69
2018-03-27T13:12:00.142Z,11.51
2018-03-27T13:13:00.874Z,11.40
2018-03-27T13:14:01.594Z,11.43
2018-03-27T13:15:02.314Z,11.35
2018-03-27T13:16:03.036Z,11.52
2018-03-27T13:17:03.754Z,11.48
2018-03-27T13:18:04.475Z,11.65
2018-03-27T13:19:05.206Z,11.73
2018-03-27T13:20:05.926Z,11.73